Time;durP1;ratioP1;P1;durP2;ratioP2;P2;SDS_P1;SDS_P2;PMS_P1;PMS_P2;Temp;Humidity;BMP_temperature;BMP_pressure;BME280_temperature;BME280_humidity;BME280_pressure;Samples;Min_cycle;Max_cycle;Signal;HPM_P1;HPM_P2
2023/05/14 00:00:40;;;;;;;10.43;4.90;;;;;;;;;;5010936;28;20633;-66
2023/05/14 00:03:07;;;;;;;9.97;5.03;;;;;;;;;;5010323;28;20250;-66
2023/05/14 00:05:33;;;;;;;7.90;5.17;;;;;;;;;;5010696;28;20659;-66
2023/05/14 00:08:00;;;;;;;10.27;5.13;;;;;;;;;;5010793;28;20188;-66
2023/05/14 00:10:27;;;;;;;8.07;4.93;;;;;;;;;;5010456;28;20177;-66
2023/05/14 00:12:53;;;;;;;9.17;5.17;;;;;;;;;;5010819;28;20595;-66
2023/05/14 00:15:20;;;;;;;10.67;4.83;;;;;;;;;;5012174;28;20195;-66
2023/05/14 00:17:47;;;;;;;10.73;5.30;;;;;;;;;;5030087;28;20235;-66
2023/05/14 00:20:13;;;;;;;8.03;5.70;;;;;;;;;;5030127;28;20211;-66
2023/05/14 00:22:40;;;;;;;8.00;5.87;;;;;;;;;;5030455;28;20198;-66
2023/05/14 00:25:07;;;;;;;20.33;5.80;;;;;;;;;;5030090;28;20277;-66
2023/05/14 00:27:34;;;;;;;19.20;5.87;;;;;;;;;;5029866;28;20190;-66
2023/05/14 00:30:03;;;;;;;21.03;6.60;;;;;;;;;;5026644;28;20198;-66
2023/05/14 00:32:29;;;;;;;17.57;5.73;;;;;;;;;;5010187;28;20529;-66
2023/05/14 00:34:56;;;;;;;14.03;6.13;;;;;;;;;;5010237;28;20557;-66
2023/05/14 00:37:23;;;;;;;14.77;6.73;;;;;;;;;;5008586;28;20223;-65
2023/05/14 00:39:50;;;;;;;24.03;6.20;;;;;;;;;;5010498;28;20719;-65
2023/05/14 00:42:17;;;;;;;22.70;5.73;;;;;;;;;;4992355;28;20208;-66
2023/05/14 00:44:43;;;;;;;18.33;6.10;;;;;;;;;;5010047;28;20187;-66
2023/05/14 00:47:10;;;;;;;17.57;6.33;;;;;;;;;;5009859;28;20187;-66
2023/05/14 00:49:38;;;;;;;13.60;6.43;;;;;;;;;;5012104;28;20195;-66
2023/05/14 00:52:06;;;;;;;15.30;6.33;;;;;;;;;;5012068;28;20199;-66
2023/05/14 00:54:33;;;;;;;15.33;6.07;;;;;;;;;;5012342;28;20195;-66
2023/05/14 00:56:59;;;;;;;10.70;5.90;;;;;;;;;;5029740;28;20215;-66
2023/05/14 00:59:26;;;;;;;8.27;5.43;;;;;;;;;;4995573;28;20455;-65
2023/05/14 01:01:52;;;;;;;10.03;5.80;;;;;;;;;;5029476;28;20218;-66
2023/05/14 01:04:19;;;;;;;10.23;6.07;;;;;;;;;;5028507;28;20303;-66
2023/05/14 01:06:52;;;;;;;13.23;6.53;;;;;;;;;;5029610;28;20277;-66
2023/05/14 01:09:26;;;;;;;11.63;5.83;;;;;;;;;;5029635;28;20233;-66
2023/05/14 01:11:58;;;;;;;10.53;6.20;;;;;;;;;;5012105;28;20187;-66
2023/05/14 01:14:31;;;;;;;11.77;6.13;;;;;;;;;;5029351;28;20187;-66
2023/05/14 01:16:58;;;;;;;8.80;6.60;;;;;;;;;;5028885;28;20590;-66
2023/05/14 01:19:31;;;;;;;10.07;5.90;;;;;;;;;;5011543;28;20222;-66
2023/05/14 01:21:58;;;;;;;9.43;6.03;;;;;;;;;;4980696;28;20299;-66
2023/05/14 01:24:24;;;;;;;11.73;7.57;;;;;;;;;;5009332;28;20325;-66
2023/05/14 01:26:51;;;;;;;14.27;6.80;;;;;;;;;;4991714;28;20200;-66
2023/05/14 01:29:19;;;;;;;9.30;6.63;;;;;;;;;;4975859;28;20196;-66
2023/05/14 01:31:47;;;;;;;19.23;8.07;;;;;;;;;;5009519;28;20192;-66
2023/05/14 01:34:14;;;;;;;21.47;8.03;;;;;;;;;;5008586;28;20192;-66
2023/05/14 01:36:43;;;;;;;11.00;6.83;;;;;;;;;;5024561;28;20196;-66
2023/05/14 01:39:09;;;;;;;13.30;7.27;;;;;;;;;;4990703;28;20218;-67
2023/05/14 01:41:36;;;;;;;16.93;7.60;;;;;;;;;;4975864;28;20210;-65
2023/05/14 02:16:33;;;;;;;10.53;7.10;;;;;;;;;;5029097;28;20214;-66
2023/05/14 02:19:18;;;;;;;11.47;8.03;;;;;;;;;;5011099;28;20242;-66
2023/05/14 02:21:45;;;;;;;12.20;7.90;;;;;;;;;;5011193;28;20188;-66
2023/05/14 02:24:12;;;;;;;12.83;8.00;;;;;;;;;;5009576;28;20322;-66
2023/05/14 02:26:39;;;;;;;15.10;8.20;;;;;;;;;;5011683;28;20254;-66
2023/05/14 02:29:08;;;;;;;14.00;9.00;;;;;;;;;;5032434;28;20184;-66
2023/05/14 02:31:34;;;;;;;10.77;8.03;;;;;;;;;;5032503;28;20187;-66
2023/05/14 02:34:01;;;;;;;18.57;7.87;;;;;;;;;;5032481;28;20198;-66
2023/05/14 02:36:28;;;;;;;13.93;9.60;;;;;;;;;;5032181;28;20270;-66
2023/05/14 02:38:54;;;;;;;10.83;7.90;;;;;;;;;;5031814;28;20234;-66
2023/05/14 02:41:21;;;;;;;11.73;8.00;;;;;;;;;;5013482;28;20187;-66
2023/05/14 02:43:48;;;;;;;13.77;8.40;;;;;;;;;;5032044;28;20180;-66
2023/05/14 02:46:14;;;;;;;13.13;9.07;;;;;;;;;;5032637;28;20199;-66
2023/05/14 02:48:41;;;;;;;14.23;8.50;;;;;;;;;;5031817;28;20191;-66
2023/05/14 02:51:08;;;;;;;10.73;7.90;;;;;;;;;;5032066;28;20192;-66
2023/05/14 02:53:35;;;;;;;10.83;8.03;;;;;;;;;;5031789;28;20310;-66
2023/05/14 02:56:02;;;;;;;10.40;8.27;;;;;;;;;;5014006;28;20558;-66
2023/05/14 02:58:29;;;;;;;13.77;8.43;;;;;;;;;;5031819;28;20241;-66
2023/05/14 03:00:56;;;;;;;11.30;8.43;;;;;;;;;;5030603;28;20314;-66
2023/05/14 03:03:24;;;;;;;14.97;8.53;;;;;;;;;;5013903;28;20207;-66
2023/05/14 03:05:52;;;;;;;13.10;8.23;;;;;;;;;;5031825;28;20184;-66
2023/05/14 03:08:18;;;;;;;12.67;8.77;;;;;;;;;;5013770;28;20195;-66
2023/05/14 03:10:45;;;;;;;13.00;8.10;;;;;;;;;;5031501;28;20187;-66
2023/05/14 03:13:11;;;;;;;16.03;9.17;;;;;;;;;;5031654;28;20267;-66
2023/05/14 03:15:38;;;;;;;11.77;8.60;;;;;;;;;;5027089;28;20220;-66
2023/05/14 03:18:05;;;;;;;12.13;9.00;;;;;;;;;;5031282;28;20302;-66
2023/05/14 03:20:32;;;;;;;12.13;8.50;;;;;;;;;;5031758;28;20203;-67
2023/05/14 03:22:58;;;;;;;11.90;8.63;;;;;;;;;;5013378;28;20195;-66
2023/05/14 03:25:25;;;;;;;15.23;9.07;;;;;;;;;;5031088;28;20183;-66
2023/05/14 03:27:52;;;;;;;14.60;9.67;;;;;;;;;;5031575;28;20242;-66
2023/05/14 03:30:18;;;;;;;18.50;8.80;;;;;;;;;;5031222;28;20183;-66
2023/05/14 03:32:46;;;;;;;20.00;9.60;;;;;;;;;;5031292;28;20258;-66
2023/05/14 03:35:13;;;;;;;14.83;10.03;;;;;;;;;;4992976;28;20192;-65
2023/05/14 03:37:40;;;;;;;15.00;9.90;;;;;;;;;;5011469;28;20206;-66
2023/05/14 03:40:07;;;;;;;12.03;9.87;;;;;;;;;;5030181;28;21052;-65
2023/05/14 03:42:35;;;;;;;15.20;9.97;;;;;;;;;;5030961;28;20282;-65
2023/05/14 03:45:01;;;;;;;16.37;11.00;;;;;;;;;;5046117;28;20188;-65
2023/05/14 03:47:28;;;;;;;14.83;9.97;;;;;;;;;;5030787;28;20179;-66
2023/05/14 03:49:55;;;;;;;14.83;9.37;;;;;;;;;;5012715;28;20682;-65
2023/05/14 03:52:22;;;;;;;13.13;9.00;;;;;;;;;;5012741;28;20238;-65
2023/05/14 03:54:49;;;;;;;11.90;8.77;;;;;;;;;;5029730;28;20245;-66
2023/05/14 03:57:17;;;;;;;13.90;9.53;;;;;;;;;;5030714;28;20234;-65
2023/05/14 03:59:44;;;;;;;12.43;8.70;;;;;;;;;;5010238;28;20566;-65
2023/05/14 04:02:11;;;;;;;12.80;9.47;;;;;;;;;;5012212;28;20235;-65
2023/05/14 04:04:39;;;;;;;10.90;8.97;;;;;;;;;;5030382;28;20196;-65
2023/05/14 04:07:07;;;;;;;11.60;9.00;;;;;;;;;;5030686;28;20196;-65
2023/05/14 04:09:34;;;;;;;11.60;9.70;;;;;;;;;;5030673;28;20199;-65
2023/05/14 04:12:00;;;;;;;13.57;9.63;;;;;;;;;;5029179;28;20559;-65
2023/05/14 04:14:28;;;;;;;13.03;9.37;;;;;;;;;;5012458;28;20196;-66
2023/05/14 04:16:54;;;;;;;14.23;9.47;;;;;;;;;;5012532;28;20196;-65
2023/05/14 04:19:21;;;;;;;13.60;10.27;;;;;;;;;;5030037;28;20199;-65
2023/05/14 04:21:47;;;;;;;12.87;9.70;;;;;;;;;;5012865;28;20222;-66
2023/05/14 04:24:15;;;;;;;19.10;9.97;;;;;;;;;;5029825;28;20305;-65
2023/05/14 04:26:47;;;;;;;12.60;8.47;;;;;;;;;;5021033;28;20611;-65
2023/05/14 04:29:14;;;;;;;13.67;9.50;;;;;;;;;;5010586;28;20665;-65
2023/05/14 04:31:41;;;;;;;14.77;8.90;;;;;;;;;;5010447;28;20302;-65
2023/05/14 04:34:09;;;;;;;11.47;9.27;;;;;;;;;;5021816;28;20203;-65
2023/05/14 04:36:36;;;;;;;11.73;8.80;;;;;;;;;;5030076;28;20195;-65
2023/05/14 04:39:02;;;;;;;13.17;9.27;;;;;;;;;;5029642;28;20640;-65
2023/05/14 04:41:29;;;;;;;15.37;9.03;;;;;;;;;;5024538;28;20268;-64
2023/05/14 04:43:57;;;;;;;13.00;9.43;;;;;;;;;;5022475;28;20315;-63
2023/05/14 04:46:24;;;;;;;12.23;9.47;;;;;;;;;;5047884;28;20199;-65
2023/05/14 04:48:51;;;;;;;13.10;9.23;;;;;;;;;;5036019;28;20226;-65
2023/05/14 04:51:17;;;;;;;13.10;9.47;;;;;;;;;;5009564;28;20226;-65
2023/05/14 04:53:44;;;;;;;13.80;9.00;;;;;;;;;;5027838;28;20199;-65
2023/05/14 04:56:12;;;;;;;17.47;10.83;;;;;;;;;;5027511;28;20187;-65
2023/05/14 04:58:39;;;;;;;14.03;9.83;;;;;;;;;;5027326;28;20336;-66
2023/05/14 05:01:06;;;;;;;11.93;9.67;;;;;;;;;;5025398;28;20234;-65
2023/05/14 05:03:33;;;;;;;12.10;9.80;;;;;;;;;;5025275;28;20191;-66
2023/05/14 05:06:00;;;;;;;15.50;10.00;;;;;;;;;;5027506;28;20187;-64
2023/05/14 05:08:26;;;;;;;16.60;10.07;;;;;;;;;;5009744;28;20187;-66
2023/05/14 05:10:53;;;;;;;12.00;9.33;;;;;;;;;;5026324;28;20278;-66
2023/05/14 05:13:20;;;;;;;17.43;9.83;;;;;;;;;;5026757;28;20206;-65
2023/05/14 05:15:46;;;;;;;11.57;8.53;;;;;;;;;;5027870;28;20291;-66
2023/05/14 05:18:13;;;;;;;11.33;9.00;;;;;;;;;;5026657;28;20203;-65
2023/05/14 05:20:40;;;;;;;12.20;8.97;;;;;;;;;;5025825;28;20698;-65
2023/05/14 05:23:07;;;;;;;11.40;8.57;;;;;;;;;;5026124;28;20215;-64
2023/05/14 05:25:34;;;;;;;12.13;8.90;;;;;;;;;;5027037;28;20191;-65
2023/05/14 05:28:02;;;;;;;12.63;8.23;;;;;;;;;;5010369;28;20925;-65
2023/05/14 05:30:29;;;;;;;11.00;7.60;;;;;;;;;;5025344;28;20199;-65
2023/05/14 05:32:56;;;;;;;10.80;8.33;;;;;;;;;;5022865;28;20191;-66
2023/05/14 05:35:23;;;;;;;9.90;7.20;;;;;;;;;;5010117;28;20223;-65
2023/05/14 05:37:50;;;;;;;8.80;6.70;;;;;;;;;;5026306;28;20265;-64
2023/05/14 05:40:17;;;;;;;9.90;6.73;;;;;;;;;;5022548;28;20572;-65
2023/05/14 05:42:44;;;;;;;9.90;6.90;;;;;;;;;;5031082;28;21867;-65
2023/05/14 05:45:11;;;;;;;9.63;7.43;;;;;;;;;;5015197;28;20580;-65
2023/05/14 05:47:38;;;;;;;13.80;7.00;;;;;;;;;;5025243;28;20253;-65
2023/05/14 05:50:05;;;;;;;12.20;6.10;;;;;;;;;;5024445;28;20298;-66
2023/05/14 05:52:31;;;;;;;8.43;5.90;;;;;;;;;;5026107;28;20223;-67
2023/05/14 05:54:58;;;;;;;10.60;6.20;;;;;;;;;;5026767;28;20187;-66
2023/05/14 05:57:26;;;;;;;10.03;6.47;;;;;;;;;;5008145;28;20196;-66
2023/05/14 05:59:52;;;;;;;8.73;6.00;;;;;;;;;;5026393;28;20230;-66
2023/05/14 06:02:19;;;;;;;9.27;5.67;;;;;;;;;;5009922;28;20573;-66
2023/05/14 06:04:46;;;;;;;9.00;5.87;;;;;;;;;;5028798;28;20191;-66
2023/05/14 06:07:13;;;;;;;12.73;6.47;;;;;;;;;;5045801;28;20267;-65
2023/05/14 06:09:40;;;;;;;9.77;5.77;;;;;;;;;;5029495;28;20213;-66
2023/05/14 06:12:07;;;;;;;13.80;6.30;;;;;;;;;;5031294;28;20570;-65
2023/05/14 06:14:34;;;;;;;11.80;6.20;;;;;;;;;;5029340;28;20191;-66
2023/05/14 06:17:02;;;;;;;9.90;6.43;;;;;;;;;;5030032;28;20887;-65
2023/05/14 06:19:28;;;;;;;10.77;6.23;;;;;;;;;;5029040;28;20225;-66
2023/05/14 06:21:55;;;;;;;8.97;5.17;;;;;;;;;;5020117;28;20227;-66
2023/05/14 06:24:22;;;;;;;11.40;6.37;;;;;;;;;;5029528;28;20800;-67
2023/05/14 06:26:48;;;;;;;7.80;6.00;;;;;;;;;;5029193;28;20242;-67
2023/05/14 06:29:15;;;;;;;9.00;5.60;;;;;;;;;;5019546;28;20188;-66
2023/05/14 06:31:42;;;;;;;5.97;5.03;;;;;;;;;;5028844;28;20214;-66
2023/05/14 06:34:09;;;;;;;7.80;6.13;;;;;;;;;;5022576;28;20191;-67
2023/05/14 06:36:36;;;;;;;10.03;5.20;;;;;;;;;;5023908;28;20202;-66
2023/05/14 06:39:03;;;;;;;7.83;5.40;;;;;;;;;;5020333;28;20188;-65
2023/05/14 06:41:30;;;;;;;10.67;5.67;;;;;;;;;;5010510;28;20309;-65
2023/05/14 06:43:56;;;;;;;7.63;5.47;;;;;;;;;;5008865;28;20192;-67
2023/05/14 06:46:23;;;;;;;13.03;6.17;;;;;;;;;;5020493;28;20609;-65
2023/05/14 06:48:50;;;;;;;8.40;5.90;;;;;;;;;;5020407;28;20230;-66
2023/05/14 06:51:16;;;;;;;9.87;5.90;;;;;;;;;;5017920;28;20199;-66
2023/05/14 06:53:45;;;;;;;8.97;6.13;;;;;;;;;;5006799;28;20232;-66
2023/05/14 06:56:13;;;;;;;8.37;6.07;;;;;;;;;;4997477;28;20188;-66
2023/05/14 06:58:40;;;;;;;9.67;5.63;;;;;;;;;;5014024;28;20907;-67
2023/05/14 07:01:07;;;;;;;10.03;5.43;;;;;;;;;;5001325;28;20295;-67
2023/05/14 07:03:34;;;;;;;7.40;4.83;;;;;;;;;;5009066;28;20283;-66
2023/05/14 07:06:01;;;;;;;5.13;4.00;;;;;;;;;;5018048;28;20562;-66
2023/05/14 07:08:28;;;;;;;6.03;4.50;;;;;;;;;;5015448;28;20192;-66
2023/05/14 07:10:56;;;;;;;6.60;4.00;;;;;;;;;;4999634;28;20193;-66
2023/05/14 07:13:23;;;;;;;4.87;3.40;;;;;;;;;;5011335;28;20192;-67
2023/05/14 07:15:54;;;;;;;6.63;3.33;;;;;;;;;;4999485;28;20279;-66
2023/05/14 07:18:22;;;;;;;7.03;3.67;;;;;;;;;;5010309;28;20654;-68
2023/05/14 07:20:48;;;;;;;7.67;3.70;;;;;;;;;;5012363;28;20559;-67
2023/05/14 07:23:15;;;;;;;6.97;3.50;;;;;;;;;;5010264;28;20563;-67
2023/05/14 07:25:45;;;;;;;7.20;3.23;;;;;;;;;;5011406;28;20194;-67
2023/05/14 07:28:12;;;;;;;4.80;3.00;;;;;;;;;;4991042;28;20308;-67
2023/05/14 07:30:42;;;;;;;6.53;3.67;;;;;;;;;;5016277;28;20200;-67
2023/05/14 07:33:10;;;;;;;4.60;3.27;;;;;;;;;;5009534;28;20780;-66
2023/05/14 07:35:37;;;;;;;5.37;3.10;;;;;;;;;;5011322;28;20196;-67
2023/05/14 07:38:05;;;;;;;6.73;3.33;;;;;;;;;;5011703;28;20184;-67
2023/05/14 07:40:31;;;;;;;4.67;2.97;;;;;;;;;;4992408;28;20282;-67
2023/05/14 07:42:59;;;;;;;5.93;3.20;;;;;;;;;;5016699;28;20196;-66
2023/05/14 07:45:27;;;;;;;6.70;3.40;;;;;;;;;;5009963;28;20187;-67
2023/05/14 07:47:54;;;;;;;5.23;3.13;;;;;;;;;;5010003;28;20192;-66
2023/05/14 07:50:21;;;;;;;6.27;3.17;;;;;;;;;;5010319;28;20614;-66
2023/05/14 07:52:49;;;;;;;5.50;3.30;;;;;;;;;;4994447;28;20203;-67
2023/05/14 07:55:16;;;;;;;5.13;3.03;;;;;;;;;;5008683;28;20215;-67
2023/05/14 07:57:44;;;;;;;5.57;3.20;;;;;;;;;;5010479;28;20192;-66
2023/05/14 08:00:15;;;;;;;6.40;2.90;;;;;;;;;;5010376;28;20195;-66
2023/05/14 08:02:43;;;;;;;6.73;2.90;;;;;;;;;;5010815;28;20246;-66
2023/05/14 08:05:10;;;;;;;4.30;3.30;;;;;;;;;;4986515;28;20342;-66
2023/05/14 08:07:37;;;;;;;5.13;3.10;;;;;;;;;;5008436;28;20180;-66
2023/05/14 08:10:06;;;;;;;4.90;3.07;;;;;;;;;;5007581;28;20208;-67
2023/05/14 08:12:33;;;;;;;6.03;3.37;;;;;;;;;;5008395;28;20275;-59
2023/05/14 08:15:01;;;;;;;7.17;3.40;;;;;;;;;;5026803;28;20199;-59
2023/05/14 08:17:27;;;;;;;5.63;3.23;;;;;;;;;;5011016;28;20192;-61
2023/05/14 08:19:54;;;;;;;7.90;3.40;;;;;;;;;;5007885;28;20184;-59
2023/05/14 08:22:24;;;;;;;4.47;2.97;;;;;;;;;;5010174;28;20224;-59
2023/05/14 08:24:52;;;;;;;4.70;3.00;;;;;;;;;;5039411;28;20662;-59
2023/05/14 08:27:18;;;;;;;4.30;2.80;;;;;;;;;;5019599;28;20655;-60
2023/05/14 08:29:47;;;;;;;5.73;3.00;;;;;;;;;;5031619;28;20206;-59
2023/05/14 08:32:14;;;;;;;5.27;3.00;;;;;;;;;;5038734;28;20186;-59
2023/05/14 08:34:49;;;;;;;6.47;3.13;;;;;;;;;;5043131;28;20190;-59
2023/05/14 08:37:17;;;;;;;5.17;2.80;;;;;;;;;;5031042;28;20175;-59
2023/05/14 08:39:45;;;;;;;5.33;2.73;;;;;;;;;;5035208;28;20191;-60
2023/05/14 08:42:12;;;;;;;4.93;3.00;;;;;;;;;;5035785;28;20222;-61
2023/05/14 08:44:44;;;;;;;9.57;3.63;;;;;;;;;;5031948;28;20574;-60
2023/05/14 08:47:11;;;;;;;4.60;2.60;;;;;;;;;;5042873;28;20184;-59
2023/05/14 08:49:42;;;;;;;4.03;2.50;;;;;;;;;;5033830;28;20562;-59
2023/05/14 08:52:09;;;;;;;3.83;2.90;;;;;;;;;;5038419;28;20215;-59
2023/05/14 08:54:35;;;;;;;5.43;2.97;;;;;;;;;;5005242;28;20191;-59
2023/05/14 08:57:04;;;;;;;5.10;2.93;;;;;;;;;;5031282;28;20192;-60
2023/05/14 08:59:31;;;;;;;3.73;2.60;;;;;;;;;;5034941;28;20438;-59
2023/05/14 09:02:00;;;;;;;5.40;2.73;;;;;;;;;;5038054;28;20210;-59
2023/05/14 09:04:28;;;;;;;5.93;2.70;;;;;;;;;;5020925;28;20190;-59
2023/05/14 09:06:55;;;;;;;4.43;2.70;;;;;;;;;;5031531;28;20184;-59
2023/05/14 09:09:22;;;;;;;6.20;2.70;;;;;;;;;;5020447;28;20199;-59
2023/05/14 09:11:50;;;;;;;5.30;2.97;;;;;;;;;;5039430;28;20188;-59
2023/05/14 09:14:16;;;;;;;4.07;2.70;;;;;;;;;;5022833;28;20574;-58
2023/05/14 09:16:43;;;;;;;3.67;2.27;;;;;;;;;;5027533;28;20193;-58
2023/05/14 09:19:12;;;;;;;3.13;2.37;;;;;;;;;;5028456;28;20192;-59
2023/05/14 09:21:39;;;;;;;4.43;2.73;;;;;;;;;;5027827;28;20216;-58
2023/05/14 09:24:06;;;;;;;2.77;2.30;;;;;;;;;;5028363;28;20233;-58
2023/05/14 09:26:33;;;;;;;4.30;2.57;;;;;;;;;;5005875;28;20198;-58
2023/05/14 09:29:03;;;;;;;3.40;2.60;;;;;;;;;;5013385;28;20670;-58
2023/05/14 09:31:32;;;;;;;5.03;2.57;;;;;;;;;;5022954;28;20191;-58
2023/05/14 09:34:03;;;;;;;4.80;2.27;;;;;;;;;;5009157;28;20194;-58
2023/05/14 09:36:30;;;;;;;3.80;2.20;;;;;;;;;;5026762;28;20185;-58
2023/05/14 09:38:57;;;;;;;2.90;2.60;;;;;;;;;;5015023;28;20203;-58
2023/05/14 09:41:25;;;;;;;6.07;2.70;;;;;;;;;;5033567;28;20209;-58
2023/05/14 09:43:52;;;;;;;5.07;2.73;;;;;;;;;;5020153;28;20189;-60
2023/05/14 09:46:18;;;;;;;5.20;2.40;;;;;;;;;;5010081;28;20195;-60
2023/05/14 09:48:45;;;;;;;5.50;2.67;;;;;;;;;;5002047;28;20194;-58
2023/05/14 09:51:12;;;;;;;4.93;2.50;;;;;;;;;;5003095;28;20668;-59
2023/05/14 09:53:40;;;;;;;5.80;2.40;;;;;;;;;;5014246;28;20665;-59
2023/05/14 09:56:06;;;;;;;5.47;2.90;;;;;;;;;;5014598;28;20203;-58
2023/05/14 09:58:34;;;;;;;3.60;2.90;;;;;;;;;;5014107;28;20173;-59
2023/05/14 10:01:01;;;;;;;4.93;3.00;;;;;;;;;;5009760;28;20238;-59
2023/05/14 10:03:28;;;;;;;5.60;2.80;;;;;;;;;;5013702;28;20187;-59
2023/05/14 10:05:57;;;;;;;5.03;2.70;;;;;;;;;;5013817;28;20197;-59
2023/05/14 10:08:34;;;;;;;5.03;2.97;;;;;;;;;;5011322;28;20252;-59
2023/05/14 10:11:05;;;;;;;4.77;2.60;;;;;;;;;;4989920;28;20275;-59
2023/05/14 10:13:36;;;;;;;4.63;2.80;;;;;;;;;;5001750;28;20223;-59
2023/05/14 10:16:07;;;;;;;4.63;2.80;;;;;;;;;;5030444;28;20666;-59
2023/05/14 10:18:38;;;;;;;3.27;2.60;;;;;;;;;;5018997;28;20188;-59
2023/05/14 10:21:05;;;;;;;9.97;3.67;;;;;;;;;;5013675;28;20219;-58
2023/05/14 10:23:36;;;;;;;6.20;2.80;;;;;;;;;;5023394;28;20215;-58
2023/05/14 10:26:03;;;;;;;5.63;2.60;;;;;;;;;;5008928;28;20227;-61
2023/05/14 10:28:33;;;;;;;19.47;3.83;;;;;;;;;;5018382;28;20194;-61
2023/05/14 10:31:01;;;;;;;5.90;2.97;;;;;;;;;;5002055;28;20216;-60
2023/05/14 10:33:28;;;;;;;5.80;3.30;;;;;;;;;;5016176;28;20274;-59
2023/05/14 10:36:13;;;;;;;5.17;3.90;;;;;;;;;;5001466;28;20180;-58
2023/05/14 10:38:41;;;;;;;5.40;3.23;;;;;;;;;;5014923;28;20195;-58
2023/05/14 10:41:11;;;;;;;5.00;3.10;;;;;;;;;;4996878;28;20212;-59
2023/05/14 10:43:38;;;;;;;3.60;2.90;;;;;;;;;;5025121;28;20206;-60
2023/05/14 10:46:05;;;;;;;5.37;3.17;;;;;;;;;;5014790;28;20199;-60
2023/05/14 10:48:32;;;;;;;4.57;3.70;;;;;;;;;;5011395;28;20204;-61
2023/05/14 10:50:59;;;;;;;5.93;3.50;;;;;;;;;;5010228;28;20188;-59
2023/05/14 10:53:44;;;;;;;7.00;3.80;;;;;;;;;;5008764;28;20196;-59
2023/05/14 10:56:12;;;;;;;6.03;3.47;;;;;;;;;;5010333;28;20670;-60
2023/05/14 10:58:40;;;;;;;4.90;3.47;;;;;;;;;;5011355;28;20207;-60
2023/05/14 11:01:07;;;;;;;5.47;3.17;;;;;;;;;;5008532;28;20224;-60
2023/05/14 11:03:38;;;;;;;6.40;3.43;;;;;;;;;;5022271;28;20234;-61
2023/05/14 11:06:05;;;;;;;7.73;3.40;;;;;;;;;;5020603;28;20204;-60
2023/05/14 11:08:32;;;;;;;3.27;2.90;;;;;;;;;;5009934;28;20207;-59
2023/05/14 11:10:59;;;;;;;6.93;2.80;;;;;;;;;;5010112;28;20195;-59
2023/05/14 11:13:25;;;;;;;3.07;2.73;;;;;;;;;;4995221;28;20683;-59
2023/05/14 11:15:52;;;;;;;7.50;3.27;;;;;;;;;;5001781;28;20224;-59
2023/05/14 11:18:29;;;;;;;4.40;2.77;;;;;;;;;;5025015;28;20192;-60
2023/05/14 11:20:59;;;;;;;6.83;3.10;;;;;;;;;;5010205;28;20262;-60
2023/05/14 11:23:26;;;;;;;5.87;2.90;;;;;;;;;;5020397;28;20235;-59
2023/05/14 11:25:54;;;;;;;5.53;3.40;;;;;;;;;;5005258;28;20217;-59
2023/05/14 11:28:21;;;;;;;7.97;3.90;;;;;;;;;;4992988;28;20223;-59
2023/05/14 11:30:49;;;;;;;6.77;3.90;;;;;;;;;;5017728;28;20520;-59
2023/05/14 11:33:15;;;;;;;5.27;3.83;;;;;;;;;;5014821;28;20192;-60
2023/05/14 11:35:44;;;;;;;6.87;4.17;;;;;;;;;;5010905;28;20292;-67
2023/05/14 11:38:17;;;;;;;6.13;3.97;;;;;;;;;;5012816;28;20743;-67
2023/05/14 11:40:55;;;;;;;5.50;4.00;;;;;;;;;;5008617;28;20330;-68
2023/05/14 11:43:28;;;;;;;7.77;4.17;;;;;;;;;;5015954;28;20619;-68
2023/05/14 11:45:55;;;;;;;6.23;4.07;;;;;;;;;;5005865;28;20250;-68
2023/05/14 11:48:22;;;;;;;5.53;4.20;;;;;;;;;;4986733;28;20734;-68
2023/05/14 11:50:50;;;;;;;6.70;3.90;;;;;;;;;;5009441;28;20243;-68
2023/05/14 11:53:17;;;;;;;4.63;3.40;;;;;;;;;;5024954;28;20188;-67
2023/05/14 11:55:45;;;;;;;3.63;3.03;;;;;;;;;;5023048;28;20673;-67
2023/05/14 11:58:12;;;;;;;3.57;2.97;;;;;;;;;;5006785;28;20710;-68
2023/05/14 12:00:59;;;;;;;4.87;3.13;;;;;;;;;;5008972;28;20281;-67
2023/05/14 12:03:30;;;;;;;7.27;3.33;;;;;;;;;;4992378;28;20216;-67
2023/05/14 12:05:58;;;;;;;4.77;3.20;;;;;;;;;;5010010;28;20216;-67
2023/05/14 12:08:25;;;;;;;4.03;2.83;;;;;;;;;;5023550;28;20198;-67
2023/05/14 12:10:52;;;;;;;4.67;2.90;;;;;;;;;;4991412;28;20257;-67
2023/05/14 12:13:20;;;;;;;6.07;2.80;;;;;;;;;;5016879;28;20185;-68
2023/05/14 12:15:48;;;;;;;4.00;3.00;;;;;;;;;;4987983;28;20231;-68
2023/05/14 12:18:16;;;;;;;5.07;2.60;;;;;;;;;;5023561;28;20200;-67
2023/05/14 12:20:50;;;;;;;6.13;2.93;;;;;;;;;;5012122;28;20539;-68
2023/05/14 12:23:24;;;;;;;3.37;2.90;;;;;;;;;;5012641;28;20551;-68
2023/05/14 12:26:04;;;;;;;6.40;3.20;;;;;;;;;;5015652;28;20198;-68
2023/05/14 12:28:32;;;;;;;7.00;3.30;;;;;;;;;;5032130;28;20180;-68
2023/05/14 12:31:02;;;;;;;6.90;3.63;;;;;;;;;;5045893;28;20257;-67
2023/05/14 12:33:29;;;;;;;6.37;3.60;;;;;;;;;;5030574;28;20681;-67
2023/05/14 12:36:00;;;;;;;7.67;3.60;;;;;;;;;;5029958;28;20218;-68
2023/05/14 12:38:48;;;;;;;5.93;3.80;;;;;;;;;;5031436;28;20224;-68
2023/05/14 12:41:16;;;;;;;5.10;3.40;;;;;;;;;;5014005;28;20204;-68
2023/05/14 12:43:43;;;;;;;5.77;3.80;;;;;;;;;;5031726;28;20195;-68
2023/05/14 12:46:10;;;;;;;7.63;3.80;;;;;;;;;;5030893;28;20236;-68
2023/05/14 12:48:36;;;;;;;5.27;3.63;;;;;;;;;;5012045;28;20191;-68
2023/05/14 12:51:03;;;;;;;5.80;3.57;;;;;;;;;;5028361;28;20184;-68
2023/05/14 12:53:30;;;;;;;7.33;3.60;;;;;;;;;;5030457;28;20199;-68
2023/05/14 12:55:57;;;;;;;5.37;3.60;;;;;;;;;;5031660;28;20237;-69
2023/05/14 12:58:25;;;;;;;4.80;3.33;;;;;;;;;;5029650;28;20219;-68
2023/05/14 13:00:51;;;;;;;5.77;3.27;;;;;;;;;;5029411;28;20241;-67
2023/05/14 13:03:20;;;;;;;8.20;4.03;;;;;;;;;;5023601;28;20223;-68
2023/05/14 13:05:51;;;;;;;7.13;3.47;;;;;;;;;;4994004;28;20295;-67
2023/05/14 13:08:20;;;;;;;6.97;3.53;;;;;;;;;;5026316;28;20237;-72
2023/05/14 13:10:47;;;;;;;5.13;3.47;;;;;;;;;;5010952;28;20551;-71
2023/05/14 13:13:14;;;;;;;5.07;3.40;;;;;;;;;;5013098;28;20187;-72
2023/05/14 13:15:42;;;;;;;8.70;3.93;;;;;;;;;;5004328;28;20231;-67
2023/05/14 13:18:08;;;;;;;4.20;3.30;;;;;;;;;;5011346;28;20555;-67
2023/05/14 13:20:39;;;;;;;5.03;3.50;;;;;;;;;;5042481;28;20191;-67
2023/05/14 13:23:08;;;;;;;5.07;3.10;;;;;;;;;;5029981;28;20254;-67
2023/05/14 13:25:36;;;;;;;6.03;3.50;;;;;;;;;;5028902;28;20243;-68
2023/05/14 13:28:07;;;;;;;8.27;3.80;;;;;;;;;;5043967;28;20195;-67
2023/05/14 13:30:33;;;;;;;7.83;3.33;;;;;;;;;;5030142;28;20211;-68
2023/05/14 13:33:00;;;;;;;4.37;3.00;;;;;;;;;;5012918;28;20532;-67
2023/05/14 13:35:27;;;;;;;6.23;3.50;;;;;;;;;;5027480;28;20198;-68
2023/05/14 13:37:55;;;;;;;8.10;3.63;;;;;;;;;;5009986;28;20194;-68
2023/05/14 13:40:23;;;;;;;7.73;4.30;;;;;;;;;;5029986;28;20241;-68
2023/05/14 13:42:51;;;;;;;5.47;4.20;;;;;;;;;;5007449;28;20239;-67
2023/05/14 13:45:18;;;;;;;8.50;4.17;;;;;;;;;;5020993;28;20214;-68
2023/05/14 13:47:45;;;;;;;6.77;3.93;;;;;;;;;;5037858;28;20211;-68
2023/05/14 13:50:14;;;;;;;5.87;3.83;;;;;;;;;;5028848;28;20558;-68
2023/05/14 13:52:41;;;;;;;6.93;3.47;;;;;;;;;;5023201;28;20558;-69
2023/05/14 13:55:08;;;;;;;6.77;3.27;;;;;;;;;;4995009;28;20193;-68
2023/05/14 13:57:36;;;;;;;4.50;3.50;;;;;;;;;;5028852;28;20566;-68
2023/05/14 14:00:04;;;;;;;5.43;3.13;;;;;;;;;;5020278;28;20314;-68
2023/05/14 14:02:31;;;;;;;7.70;3.33;;;;;;;;;;5027376;28;20302;-69
2023/05/14 14:04:59;;;;;;;4.43;3.17;;;;;;;;;;5008225;28;20188;-68
2023/05/14 14:07:30;;;;;;;11.30;3.50;;;;;;;;;;5047302;28;20279;-69
2023/05/14 14:10:01;;;;;;;10.07;3.47;;;;;;;;;;5032006;28;20191;-69
2023/05/14 14:12:27;;;;;;;4.23;2.60;;;;;;;;;;5028795;28;20195;-70
2023/05/14 14:14:54;;;;;;;4.17;2.10;;;;;;;;;;5010622;28;20215;-71
2023/05/14 14:17:21;;;;;;;4.10;2.40;;;;;;;;;;5028809;28;20206;-71
2023/05/14 14:19:48;;;;;;;4.93;2.60;;;;;;;;;;5015088;28;20924;-71
2023/05/14 14:22:16;;;;;;;6.07;2.90;;;;;;;;;;5032433;28;20586;-71
2023/05/14 14:24:49;;;;;;;4.80;2.60;;;;;;;;;;5015046;28;20227;-71
2023/05/14 14:27:15;;;;;;;4.07;2.30;;;;;;;;;;5013601;28;20214;-72
2023/05/14 14:29:42;;;;;;;3.43;2.40;;;;;;;;;;5032545;28;20287;-73
2023/05/14 14:32:09;;;;;;;3.07;2.10;;;;;;;;;;5010436;28;20199;-71
2023/05/14 14:34:36;;;;;;;3.70;2.20;;;;;;;;;;5012767;28;20189;-72
2023/05/14 14:37:03;;;;;;;5.33;2.50;;;;;;;;;;5017093;28;20629;-73
2023/05/14 14:39:30;;;;;;;3.50;2.47;;;;;;;;;;5027286;28;20180;-73
2023/05/14 14:41:57;;;;;;;2.77;2.23;;;;;;;;;;5030142;28;20187;-73
2023/05/14 14:44:25;;;;;;;4.27;2.70;;;;;;;;;;5031123;28;20594;-73
2023/05/14 14:46:56;;;;;;;4.50;2.67;;;;;;;;;;5001490;28;20549;-72
2023/05/14 14:49:23;;;;;;;4.97;3.00;;;;;;;;;;5029080;28;20226;-68
2023/05/14 14:51:50;;;;;;;4.10;2.83;;;;;;;;;;5034005;28;20199;-70
2023/05/14 14:54:17;;;;;;;5.03;2.97;;;;;;;;;;4993665;28;20188;-72
2023/05/14 14:56:44;;;;;;;5.90;2.67;;;;;;;;;;5026749;28;20650;-73
2023/05/14 14:59:11;;;;;;;6.03;3.03;;;;;;;;;;5032683;28;20230;-73
2023/05/14 15:01:38;;;;;;;9.17;2.80;;;;;;;;;;5036628;28;20207;-72
2023/05/14 15:04:05;;;;;;;6.43;2.67;;;;;;;;;;5029762;28;20219;-72
2023/05/14 15:06:32;;;;;;;5.53;2.93;;;;;;;;;;5026341;28;20195;-69
2023/05/14 15:08:59;;;;;;;6.03;3.17;;;;;;;;;;5028689;28;20218;-69
2023/05/14 15:11:29;;;;;;;4.73;3.27;;;;;;;;;;5006376;28;20300;-67
2023/05/14 15:13:56;;;;;;;3.80;2.63;;;;;;;;;;5012886;28;20184;-67